Flight Track Log - Related Links

Times and Time Zones

All times are in EDT time to prevent confusion due to time zone crossing. See the MTN7303 flight status page for this flight to view local times or setup timezone preferences in your user account.

Time Position Orientation Groundspeed Altitude Reporting Facility
EDT Latitude Longitude Course Direction KTS MPH feet Rate Location/Type
Wed 11:17:39 PM 39.1833 -76.6333 38° Northeast 101 116 1,000  Level Potomac TRACON
Wed 11:18:27 PM 39.2000 -76.6167 38° Northeast 96 110 1,700 895 Climbing Potomac TRACON
Wed 11:19:33 PM 39.2167 -76.5833 57° Northeast 90 104 2,700 826 Climbing Potomac TRACON
Wed 11:20:45 PM 39.2333 -76.5667 38° Northeast 95 109 3,600 700 Climbing Potomac TRACON
Wed 11:21:33 PM 39.2500 -76.5500 38° Northeast 102 117 4,100 684 Climbing Potomac TRACON
Wed 11:22:39 PM 39.2833 -76.5167 38° Northeast 108 124 4,900 500 Climbing Potomac TRACON
Wed 11:23:33 PM 39.3000 -76.4833 57° Northeast 125 144 5,100 69 Climbing Potomac TRACON
Wed 11:25:33 PM 39.3500 -76.4167 46° Northeast 145 167 5,100  Level Potomac TRACON
Wed 11:26:33 PM 39.3833 -76.3667 49° Northeast 143 165 5,100  Level Potomac TRACON
Wed 11:27:45 PM 39.4167 -76.3333 38° Northeast 141 162 5,100  Level Potomac TRACON
Wed 11:28:45 PM 39.4333 -76.3000 57° Northeast 142 163 5,100 -55 Level Potomac TRACON
Wed 11:29:34 PM 39.4667 -76.2667 38° Northeast 139 160 5,000 -39 Descending Potomac TRACON
Wed 11:31:17 PM 39.5167 -76.2000 46° Northeast 140 161 5,000  Level Philadelphia TRACON
Wed 11:32:23 PM 39.5333 -76.1667 57° Northeast 140 161 5,000  Level Philadelphia TRACON
Wed 11:33:17 PM 39.5667 -76.1333 38° Northeast 141 162 5,000  Level Philadelphia TRACON
Wed 11:34:17 PM 39.6000 -76.1000 38° Northeast 141 162 5,000  Level Philadelphia TRACON
Wed 11:35:17 PM 39.6167 -76.0667 57° Northeast 143 165 5,000  Level Philadelphia TRACON
Wed 11:36:11 PM 39.6500 -76.0333 38° Northeast 142 163 5,000  Level Philadelphia TRACON
Wed 11:37:11 PM 39.6667 -76.0000 57° Northeast 142 163 5,000  Level Philadelphia TRACON
Wed 11:38:11 PM 39.7000 -75.9667 38° Northeast 142 163 5,000  Level Philadelphia TRACON
Wed 11:39:11 PM 39.7333 -75.9167 49° Northeast 142 163 5,000  Level Philadelphia TRACON
Wed 11:40:11 PM 39.7500 -75.8833 57° Northeast 143 165 5,000  Level Philadelphia TRACON
Wed 11:41:11 PM 39.7833 -75.8500 38° Northeast 143 165 5,000  Level Philadelphia TRACON
Wed 11:42:17 PM 39.8167 -75.8000 49° Northeast 144 166 5,000  Level Philadelphia TRACON
Wed 11:43:17 PM 39.8500 -75.7667 38° Northeast 145 167 5,000  Level Philadelphia TRACON
Wed 11:44:17 PM 39.8667 -75.7333 57° Northeast 144 166 5,000  Level Philadelphia TRACON
Wed 11:45:17 PM 39.9000 -75.7000 37° Northeast 142 163 5,000  Level Philadelphia TRACON
Wed 11:46:23 PM 39.9333 -75.6500 49° Northeast 139 160 5,000  Level Philadelphia TRACON
Wed 11:47:23 PM 39.9500 -75.6167 57° Northeast 138 159 5,000  Level Philadelphia TRACON
Wed 11:48:17 PM 39.9667 -75.5667 66° East 139 160 5,000  Level Philadelphia TRACON
Wed 11:49:17 PM 39.9833 -75.5333 57° Northeast 139 160 5,000  Level Philadelphia TRACON
Wed 11:50:17 PM 40.0000 -75.4833 66° East 139 160 5,000  Level Philadelphia TRACON
Wed 11:51:17 PM 40.0167 -75.4333 66° East 140 161 5,000  Level Philadelphia TRACON
Wed 11:52:17 PM 40.0333 -75.4000 57° Northeast 138 159 5,000  Level Philadelphia TRACON
Wed 11:53:11 PM 40.0500 -75.3500 66° East 140 161 5,000  Level Philadelphia TRACON
Wed 11:54:11 PM 40.0833 -75.3167 37° Northeast 140 161 5,000  Level Philadelphia TRACON
Wed 11:55:17 PM 40.1000 -75.2667 66° East 138 159 5,000  Level Philadelphia TRACON
Wed 11:56:17 PM 40.1167 -75.2167 66° East 139 160 5,000  Level Philadelphia TRACON
Wed 11:57:23 PM 40.1333 -75.1667 66° East 141 162 5,000  Level Philadelphia TRACON
Wed 11:58:48 PM 40.1667 -75.1167 49° Northeast 142 163 5,000  Level New York TRACON
Wed 11:59:48 PM 40.1833 -75.0667 66° East 139 160 5,000  Level New York TRACON
Thu 12:00:42 AM 40.2000 -75.0333 57° Northeast 140 161 5,000  Level New York TRACON
Thu 12:01:36 AM 40.2167 -74.9833 66° East 137 158 5,000  Level New York TRACON
Thu 12:02:42 AM 40.2333 -74.9333 66° East 135 155 5,000  Level New York TRACON
Thu 12:03:42 AM 40.2500 -74.9000 57° Northeast 134 154 5,000  Level New York TRACON
Thu 12:04:36 AM 40.2833 -74.8667 37° Northeast 134 154 5,000  Level New York TRACON
Thu 12:05:42 AM 40.3167 -74.8333 37° Northeast 137 158 5,000  Level New York TRACON
Thu 12:06:36 AM 40.3333 -74.8000 57° Northeast 137 158 5,000  Level New York TRACON
Thu 12:07:36 AM 40.3667 -74.7667 37° Northeast 138 159 5,000  Level New York TRACON
Thu 12:08:30 AM 40.3833 -74.7333 57° Northeast 146 168 5,000  Level New York TRACON
Thu 12:09:30 AM 40.4167 -74.7000 37° Northeast 146 168 5,000  Level New York TRACON
Thu 12:10:42 AM 40.4667 -74.6667 27° Northeast 148 170 5,000  Level New York TRACON
Thu 12:11:42 AM 40.5000 -74.6333 37° Northeast 143 165 5,000 -200 Level New York TRACON
Thu 12:12:42 AM 40.5167 -74.6000 57° Northeast 147 169 4,600 -526 Descending New York TRACON
Thu 12:13:36 AM 40.5500 -74.5667 37° Northeast 155 178 4,000 -286 Descending New York TRACON
Thu 12:14:48 AM 40.5833 -74.5167 49° Northeast 143 165 4,000  Level New York TRACON
Thu 12:15:42 AM 40.6167 -74.5000 21° North 141 162 4,000 -105 Level New York TRACON
Thu 12:16:42 AM 40.6500 -74.4667 37° Northeast 144 166 3,800 -421 Descending New York TRACON
Thu 12:17:36 AM 40.6667 -74.4167 66° East 163 188 3,200 -400 Descending New York TRACON
Thu 12:18:42 AM 40.7000 -74.3833 37° Northeast 151 174 3,000 -105 Descending New York TRACON
Thu 12:19:30 AM 40.7333 -74.3500 37° Northeast 145 167 3,000  Level New York TRACON
Thu 12:20:36 AM 40.7667 -74.3000 49° Northeast 146 168 3,000 -48 Level New York TRACON
Thu 12:21:36 AM 40.7667 -74.2500 90° East 144 166 2,900 -250 Descending New York TRACON
Thu 12:22:36 AM 40.7667 -74.2000 90° East 157 181 2,500 -500 Descending New York TRACON
Thu 12:23:36 AM 40.7500 -74.1500 114° Southeast 164 189 1,900 -1,000 Descending New York TRACON
Thu 12:24:36 AM 40.7167 -74.1500 180° South 168 193 500 -1,400 Descending New York TRACON
Thu 12:26:00 AM 40.6925 -74.1687 111° Southeast  Level Estimated
Thu 12:33:00 AM 40.6925 -74.1687 111° Southeast  Level Estimated

Login

Don't have an account? Register now (free) for customized features, flight alerts, and more!